Terminal Aerodrome Forecast
Issued by NWS Tiyan, Guam

Home | Current Version | Previous Version | Text Only | Print | Product List | Glossary On
Versions: 1 2 3 4 5 6 7 8 9 10 11 12 13 14 15 16 17 18 19 20 21 22
000
FTPQ31 PGUM 010542
TAFGUM
TAF
PGUM 010542Z 0106/0212 15007KT P6SM VCSH FEW018 SCT050 SCT160
     FM011000 VRB05KT P6SM VCSH FEW020 SCT050 SCT160=

USA.gov is the U.S. government's official web portal to all federal, state and local government web resources and services.